Main page
METAR-TAF:

METAR-TAF

Airports :

Chios Island National Airport

Chios, Greece

latitude: 38-20N, longitude: 026-08E, elevation: 5 m

Current weather observation

The report was made 57 minutes ago, at 23:50 UTC
Wind 15 kt from the South with gusts up to 25 kt, varying between South/Southeast and Southwest
Temperature 14°C
Humidity 82%
Pressure 1010 hPa
Visibility 10 km or more
Scattered clouds at a height of 2500 ft

METAR: LGHI 262350Z 18015G25KT 150V230 9999 SCT025 14/11 Q1010

Time: 02:47 (00:47 UTC)

Forecast

The report was made 1 hour and 47 minutes ago, at 23:00 UTC
Forecast valid from 27 at 00 UTC to 27 at 09 UTC
Wind 20 kt from the South with gusts up to 30 kt
Visibility 10 km or more
Scattered clouds at a height of 2000 ft
Temporary
from 27 at 00 UTC to 27 at 09 UTC
Broken clouds at a height of 2000 ft

TAF: LGHI 262300Z 2700/2709 19020G30KT 9999 SCT020 TEMPO 2700/2709 BKN020

Weather observations and forecasts of more than 4000 airports (METAR and TAF reports).

The available stations are represented by yellow and red dots on the map.

Hover mouse over dot to see the name of the station.

Then click to see weather observations and forecasts.

To change the map : click on the green buttons with a black cross to zoom in, on the green button with a dash to zoom out, or on the green arrows for adjacent maps.


METAR-TAF: